createdAt,value
2018-12-31T00:01:54.634Z,6.70
2018-12-31T00:04:23.204Z,6.60
2018-12-31T00:06:51.784Z,6.60
2018-12-31T00:09:20.344Z,6.70
2018-12-31T00:11:48.909Z,6.70
2018-12-31T00:14:17.491Z,6.70
2018-12-31T00:16:46.056Z,6.70
2018-12-31T00:19:14.644Z,6.70
2018-12-31T00:21:43.235Z,6.70
2018-12-31T00:24:13.220Z,6.70
2018-12-31T00:26:41.776Z,6.60
2018-12-31T00:29:10.340Z,6.60
2018-12-31T00:31:38.902Z,6.70
2018-12-31T00:34:07.455Z,6.70
2018-12-31T00:36:36.032Z,6.70
2018-12-31T00:39:06.547Z,6.70
2018-12-31T00:41:35.120Z,6.70
2018-12-31T00:44:03.686Z,6.70
2018-12-31T00:46:32.271Z,6.70
2018-12-31T00:49:00.836Z,6.70
2018-12-31T00:51:29.437Z,6.70
2018-12-31T00:53:58.032Z,6.80
2018-12-31T00:56:26.597Z,6.70
2018-12-31T00:58:55.160Z,6.80
2018-12-31T01:01:23.734Z,6.80
2018-12-31T01:03:52.302Z,6.80
2018-12-31T01:06:20.863Z,6.80
2018-12-31T01:08:49.431Z,6.80
2018-12-31T01:11:18.281Z,6.80
2018-12-31T01:13:46.853Z,6.90
2018-12-31T01:16:15.425Z,6.90
2018-12-31T01:18:43.982Z,6.90
2018-12-31T01:21:12.562Z,6.90
2018-12-31T01:23:41.114Z,6.90
2018-12-31T01:26:09.688Z,6.90
2018-12-31T01:28:38.268Z,6.90
2018-12-31T01:31:06.840Z,6.90
2018-12-31T01:33:35.403Z,6.90
2018-12-31T01:36:03.983Z,6.90
2018-12-31T01:38:32.556Z,6.90
2018-12-31T01:41:01.138Z,6.90
2018-12-31T01:43:29.692Z,6.90
2018-12-31T01:45:58.293Z,6.90
2018-12-31T01:48:26.862Z,6.90
2018-12-31T01:50:55.436Z,6.90
2018-12-31T01:53:24.023Z,6.90
2018-12-31T01:55:52.620Z,6.90
2018-12-31T01:58:21.192Z,7.00
2018-12-31T02:00:49.765Z,7.00
2018-12-31T02:03:18.346Z,7.10
2018-12-31T02:05:46.916Z,7.00
2018-12-31T02:08:15.493Z,7.00
2018-12-31T02:10:44.057Z,7.00
2018-12-31T02:13:12.639Z,7.10
2018-12-31T02:15:41.193Z,7.10
2018-12-31T02:18:09.775Z,7.10
2018-12-31T02:20:38.332Z,7.20
2018-12-31T02:23:06.986Z,7.20
2018-12-31T02:25:35.539Z,7.20
2018-12-31T02:28:04.105Z,7.20
2018-12-31T02:30:32.673Z,7.20
2018-12-31T02:33:01.244Z,7.20
2018-12-31T02:35:29.819Z,7.20
2018-12-31T02:37:58.400Z,7.20
2018-12-31T02:40:26.964Z,7.20
2018-12-31T02:42:55.535Z,7.30
2018-12-31T02:45:24.099Z,7.30
2018-12-31T02:47:52.682Z,7.20
2018-12-31T02:50:21.259Z,7.30
2018-12-31T02:52:49.824Z,7.30
2018-12-31T02:55:18.376Z,7.20
2018-12-31T02:57:46.940Z,7.20
2018-12-31T03:00:15.693Z,7.20
2018-12-31T03:02:44.286Z,7.30
2018-12-31T03:05:14.164Z,7.30
2018-12-31T03:07:42.735Z,7.30
2018-12-31T03:10:11.310Z,7.20
2018-12-31T03:12:39.882Z,7.20
2018-12-31T03:15:08.444Z,7.30
2018-12-31T03:17:37.014Z,7.20
2018-12-31T03:20:05.697Z,7.20
2018-12-31T03:22:34.432Z,7.20
2018-12-31T03:25:02.996Z,7.20
2018-12-31T03:27:31.552Z,7.20
2018-12-31T03:30:00.296Z,7.30
2018-12-31T03:32:29.084Z,7.40
2018-12-31T03:34:57.654Z,7.30
2018-12-31T03:37:26.206Z,7.30
2018-12-31T03:39:54.776Z,7.40
2018-12-31T03:42:23.365Z,7.40
2018-12-31T03:44:51.933Z,7.40
2018-12-31T03:47:20.506Z,7.40
2018-12-31T03:49:49.076Z,7.40
2018-12-31T03:52:17.644Z,7.30
2018-12-31T03:54:46.208Z,7.30
2018-12-31T03:57:14.779Z,7.30
2018-12-31T03:59:43.350Z,7.40
2018-12-31T04:02:11.919Z,7.40
2018-12-31T04:04:40.486Z,7.50
2018-12-31T04:07:09.065Z,7.50
2018-12-31T04:09:37.621Z,7.50
2018-12-31T04:12:06.186Z,7.40
2018-12-31T04:14:34.758Z,7.50
2018-12-31T04:17:03.338Z,7.40
2018-12-31T04:19:31.897Z,7.40
2018-12-31T04:22:00.466Z,7.40
2018-12-31T04:24:29.040Z,7.40
2018-12-31T04:26:57.624Z,7.40
2018-12-31T04:29:26.173Z,7.40
2018-12-31T04:31:54.739Z,7.40
2018-12-31T04:34:24.005Z,7.40
2018-12-31T04:36:52.569Z,7.40
2018-12-31T04:39:21.127Z,7.40
2018-12-31T04:41:49.700Z,7.40
2018-12-31T04:44:18.264Z,7.50
2018-12-31T04:46:46.846Z,7.50
2018-12-31T04:49:15.404Z,7.50
2018-12-31T04:51:43.985Z,7.50
2018-12-31T04:54:12.545Z,7.50
2018-12-31T04:56:42.087Z,7.50
2018-12-31T04:59:10.655Z,7.50
2018-12-31T05:01:39.237Z,7.60
2018-12-31T05:04:07.788Z,7.60
2018-12-31T05:06:36.353Z,7.70
2018-12-31T05:09:06.400Z,7.70
2018-12-31T05:11:34.973Z,7.70
2018-12-31T05:14:03.652Z,7.70
2018-12-31T05:16:32.229Z,7.60
2018-12-31T05:19:00.985Z,7.60
2018-12-31T05:21:29.552Z,7.70
2018-12-31T05:23:58.111Z,7.60
2018-12-31T05:26:26.672Z,7.60
2018-12-31T05:28:55.232Z,7.60
2018-12-31T05:31:23.788Z,7.60
2018-12-31T05:33:52.379Z,7.70
2018-12-31T05:36:20.929Z,7.60
2018-12-31T05:38:49.508Z,7.60
2018-12-31T05:41:18.079Z,7.60
2018-12-31T05:43:46.643Z,7.60
2018-12-31T05:46:15.197Z,7.60
2018-12-31T05:48:43.808Z,7.60
2018-12-31T05:51:12.370Z,7.70
2018-12-31T05:53:40.962Z,7.70
2018-12-31T05:56:09.521Z,7.70
2018-12-31T05:58:38.087Z,7.80
2018-12-31T06:01:06.653Z,7.80
2018-12-31T06:03:35.230Z,7.70
2018-12-31T06:06:03.794Z,7.70
2018-12-31T06:08:34.080Z,7.70
2018-12-31T06:11:03.142Z,7.60
2018-12-31T06:13:31.707Z,7.70
2018-12-31T06:16:00.264Z,7.60
2018-12-31T06:18:28.845Z,7.60
2018-12-31T06:20:57.923Z,7.60
2018-12-31T06:23:26.484Z,7.60
2018-12-31T06:25:55.039Z,7.70
2018-12-31T06:28:23.615Z,7.70
2018-12-31T06:30:52.169Z,7.70
2018-12-31T06:33:20.741Z,7.70
2018-12-31T06:35:50.223Z,7.70
2018-12-31T06:38:18.802Z,7.70
2018-12-31T06:40:47.379Z,7.70
2018-12-31T06:43:15.928Z,7.70
2018-12-31T06:45:44.508Z,7.70
2018-12-31T06:48:13.072Z,7.70
2018-12-31T06:50:41.632Z,7.60
2018-12-31T06:53:10.202Z,7.70
2018-12-31T06:55:38.778Z,7.70
2018-12-31T06:58:09.065Z,7.80
2018-12-31T07:00:37.717Z,7.80
2018-12-31T07:03:06.264Z,7.80
2018-12-31T07:05:34.839Z,7.90
2018-12-31T07:08:03.404Z,7.90
2018-12-31T07:10:31.976Z,8.00
2018-12-31T07:13:00.536Z,8.00
2018-12-31T07:15:29.112Z,8.10
2018-12-31T07:17:57.664Z,8.00
2018-12-31T07:20:26.342Z,8.00
2018-12-31T07:22:54.933Z,8.00
2018-12-31T07:25:23.510Z,8.00
2018-12-31T07:27:52.080Z,8.10
2018-12-31T07:30:20.655Z,8.10
2018-12-31T07:32:49.213Z,8.10
2018-12-31T07:35:17.787Z,8.00
2018-12-31T07:37:46.524Z,8.10
2018-12-31T07:40:15.106Z,8.10
2018-12-31T07:42:43.660Z,8.10
2018-12-31T07:45:12.240Z,8.20
2018-12-31T07:47:40.792Z,8.10
2018-12-31T07:50:09.374Z,8.20
2018-12-31T07:52:37.920Z,8.20
2018-12-31T07:55:06.496Z,8.20
2018-12-31T07:57:35.081Z,8.20
2018-12-31T08:00:05.022Z,8.20
2018-12-31T08:02:33.601Z,8.20
2018-12-31T08:05:02.276Z,8.10
2018-12-31T08:07:30.844Z,8.10
2018-12-31T08:09:59.409Z,8.00
2018-12-31T08:12:27.978Z,8.00
2018-12-31T08:14:56.541Z,8.10
2018-12-31T08:17:25.108Z,8.10
2018-12-31T08:19:53.914Z,8.10
2018-12-31T08:22:22.493Z,8.10
2018-12-31T08:24:51.073Z,8.10
2018-12-31T08:27:19.647Z,8.10
2018-12-31T08:29:48.232Z,8.10
2018-12-31T08:32:16.809Z,8.10
2018-12-31T08:34:45.377Z,8.10
2018-12-31T08:37:13.962Z,8.00
2018-12-31T08:39:42.663Z,8.10
2018-12-31T08:42:11.232Z,8.10
2018-12-31T08:44:40.841Z,8.20
2018-12-31T08:47:09.652Z,8.30
2018-12-31T08:49:38.224Z,8.30
2018-12-31T08:52:06.806Z,8.40
2018-12-31T08:54:36.071Z,8.40
2018-12-31T08:57:04.656Z,8.40
2018-12-31T08:59:33.220Z,8.50
2018-12-31T09:02:01.975Z,8.60
2018-12-31T09:04:30.552Z,8.50
2018-12-31T09:06:59.125Z,8.60
2018-12-31T09:09:27.712Z,8.70
2018-12-31T09:11:56.301Z,8.60
2018-12-31T09:14:24.885Z,8.50
2018-12-31T09:16:53.492Z,8.50
2018-12-31T09:19:28.904Z,8.50
2018-12-31T09:21:57.984Z,8.60
2018-12-31T09:24:26.582Z,8.50
2018-12-31T09:26:55.194Z,8.60
2018-12-31T09:29:23.864Z,8.60
2018-12-31T09:31:52.448Z,8.70
2018-12-31T09:34:21.033Z,8.80
2018-12-31T09:36:49.593Z,8.70
2018-12-31T09:39:18.180Z,8.90
2018-12-31T09:41:46.736Z,8.90
2018-12-31T09:44:16.198Z,9.00
2018-12-31T09:46:45.973Z,9.00
2018-12-31T09:49:15.667Z,9.00
2018-12-31T09:51:45.542Z,8.90
2018-12-31T09:54:15.369Z,8.90
2018-12-31T09:56:45.168Z,9.10
2018-12-31T09:59:15.005Z,9.10
2018-12-31T10:01:44.855Z,9.20
2018-12-31T10:04:14.806Z,9.10
2018-12-31T10:06:44.414Z,9.10
2018-12-31T10:09:13.866Z,9.20
2018-12-31T10:11:43.540Z,9.20
2018-12-31T10:14:12.112Z,9.20
2018-12-31T10:16:40.699Z,9.20
2018-12-31T10:19:15.412Z,9.20
2018-12-31T10:21:43.995Z,9.30
2018-12-31T10:24:12.580Z,9.30
2018-12-31T10:26:41.272Z,9.40
2018-12-31T10:29:09.864Z,9.50
2018-12-31T10:31:38.470Z,9.60
2018-12-31T10:34:07.196Z,9.70
2018-12-31T10:36:35.796Z,9.70
2018-12-31T10:39:06.703Z,9.90
2018-12-31T10:41:35.509Z,9.90
2018-12-31T10:44:04.234Z,9.80
2018-12-31T10:46:32.810Z,9.90
2018-12-31T10:49:01.375Z,9.80
2018-12-31T10:51:29.951Z,9.90
2018-12-31T10:53:58.625Z,10.00
2018-12-31T10:56:27.195Z,10.00
2018-12-31T10:58:55.757Z,9.90
2018-12-31T11:01:24.349Z,10.00
2018-12-31T11:03:53.358Z,10.00
2018-12-31T11:06:22.248Z,9.90
2018-12-31T11:08:50.822Z,10.10
2018-12-31T11:11:19.388Z,10.20
2018-12-31T11:13:47.973Z,10.20
2018-12-31T11:16:16.673Z,10.30
2018-12-31T11:18:45.233Z,10.40
2018-12-31T11:21:13.808Z,10.40
2018-12-31T11:23:42.477Z,11.00
2018-12-31T11:26:13.244Z,11.00
2018-12-31T11:28:42.018Z,10.80
2018-12-31T11:31:10.671Z,10.90
2018-12-31T11:33:39.286Z,11.00
2018-12-31T11:36:07.868Z,11.30
2018-12-31T11:38:36.569Z,11.30
2018-12-31T11:41:05.145Z,11.10
2018-12-31T11:43:33.708Z,11.20
2018-12-31T11:46:02.322Z,10.90
2018-12-31T11:48:30.943Z,10.80
2018-12-31T11:50:59.506Z,10.70
2018-12-31T11:53:28.150Z,10.80
2018-12-31T11:55:56.787Z,10.70
2018-12-31T11:58:25.361Z,10.90
2018-12-31T12:00:53.977Z,11.00
2018-12-31T12:03:22.584Z,11.10
2018-12-31T12:05:51.216Z,11.10
2018-12-31T12:08:19.792Z,11.00
2018-12-31T12:10:58.698Z,10.90
2018-12-31T12:13:27.756Z,10.90
2018-12-31T12:15:57.422Z,11.00
2018-12-31T12:18:26.304Z,11.10
2018-12-31T12:20:54.904Z,10.80
2018-12-31T12:23:25.031Z,10.80
2018-12-31T12:25:54.313Z,10.80
2018-12-31T12:28:23.137Z,10.90
2018-12-31T12:30:51.689Z,10.80
2018-12-31T12:33:20.348Z,10.90
2018-12-31T12:35:48.910Z,11.00
2018-12-31T12:38:17.862Z,10.90
2018-12-31T12:40:46.461Z,10.90
2018-12-31T12:43:15.032Z,10.90
2018-12-31T12:45:43.596Z,11.00
2018-12-31T12:48:12.224Z,11.10
2018-12-31T12:50:41.584Z,11.10
2018-12-31T12:53:10.178Z,11.20
2018-12-31T12:55:38.754Z,11.10
2018-12-31T12:58:07.340Z,11.10
2018-12-31T13:00:35.921Z,11.20
2018-12-31T13:03:04.597Z,11.20
2018-12-31T13:05:33.232Z,11.20
2018-12-31T13:08:01.880Z,11.30
2018-12-31T13:10:30.491Z,11.20
2018-12-31T13:12:59.057Z,11.10
2018-12-31T13:15:27.673Z,11.20
2018-12-31T13:17:57.356Z,11.20
2018-12-31T13:20:25.944Z,11.10
2018-12-31T13:22:54.509Z,11.10
2018-12-31T13:25:23.165Z,11.10
2018-12-31T13:27:51.780Z,11.20
2018-12-31T13:30:20.353Z,11.20
2018-12-31T13:32:48.915Z,11.10
2018-12-31T13:35:18.154Z,11.00
2018-12-31T13:37:46.740Z,11.00
2018-12-31T13:40:15.456Z,11.20
2018-12-31T13:42:44.104Z,11.20
2018-12-31T13:45:12.848Z,11.20
2018-12-31T13:47:41.495Z,11.20
2018-12-31T13:50:10.059Z,11.00
2018-12-31T13:52:40.806Z,11.10
2018-12-31T13:55:09.755Z,11.10
2018-12-31T13:57:38.352Z,11.10
2018-12-31T14:00:08.353Z,11.10
2018-12-31T14:02:37.310Z,11.00
2018-12-31T14:05:05.913Z,11.00
2018-12-31T14:07:34.479Z,11.00
2018-12-31T14:10:03.648Z,11.00
2018-12-31T14:12:32.237Z,11.00
2018-12-31T14:15:00.804Z,11.10
2018-12-31T14:17:29.417Z,11.10
2018-12-31T14:19:58.002Z,11.10
2018-12-31T14:22:26.597Z,11.10
2018-12-31T14:24:55.205Z,11.10
2018-12-31T14:27:23.800Z,11.00
2018-12-31T14:29:54.165Z,11.00
2018-12-31T14:32:22.740Z,11.00
2018-12-31T14:34:51.343Z,11.00
2018-12-31T14:37:19.969Z,11.00
2018-12-31T14:39:48.572Z,10.90
2018-12-31T14:42:17.152Z,10.90
2018-12-31T14:44:45.770Z,10.90
2018-12-31T14:47:18.284Z,10.90
2018-12-31T14:49:44.661Z,10.90
2018-12-31T14:52:14.077Z,10.80
2018-12-31T14:54:42.684Z,10.80
2018-12-31T14:57:11.268Z,10.70
2018-12-31T14:59:42.201Z,10.60
2018-12-31T15:02:10.780Z,10.60
2018-12-31T15:04:40.652Z,10.50
2018-12-31T15:07:09.380Z,10.50
2018-12-31T15:09:37.941Z,10.50
2018-12-31T15:12:06.670Z,10.50
2018-12-31T15:14:35.900Z,10.50
2018-12-31T15:17:04.671Z,10.40
2018-12-31T15:19:33.236Z,10.40
2018-12-31T15:22:02.802Z,10.40
2018-12-31T15:24:33.865Z,10.40
2018-12-31T15:27:02.472Z,10.20
2018-12-31T15:29:31.164Z,10.10
2018-12-31T15:31:59.754Z,10.10
2018-12-31T15:34:28.318Z,10.20
2018-12-31T15:36:56.888Z,10.10
2018-12-31T15:39:25.482Z,10.10
2018-12-31T15:41:54.065Z,10.10
2018-12-31T15:44:22.750Z,10.10
2018-12-31T15:46:51.359Z,10.10
2018-12-31T15:49:19.928Z,10.10
2018-12-31T15:51:48.515Z,10.10
2018-12-31T15:54:23.437Z,10.00
2018-12-31T15:56:52.381Z,10.00
2018-12-31T15:59:20.946Z,10.00
2018-12-31T16:01:49.514Z,10.00
2018-12-31T16:04:18.101Z,10.00
2018-12-31T16:06:46.692Z,10.00
2018-12-31T16:09:15.282Z,10.00
2018-12-31T16:11:43.862Z,10.00
2018-12-31T16:14:12.518Z,9.90
2018-12-31T16:16:41.094Z,10.00
2018-12-31T16:19:10.194Z,10.00
2018-12-31T16:21:38.804Z,9.90
2018-12-31T16:24:07.413Z,9.90
2018-12-31T16:26:35.985Z,9.90
2018-12-31T16:29:04.643Z,9.80
2018-12-31T16:31:33.222Z,9.80
2018-12-31T16:34:01.805Z,9.80
2018-12-31T16:36:30.480Z,9.80
2018-12-31T16:38:59.200Z,9.80
2018-12-31T16:41:28.381Z,9.80
2018-12-31T16:43:57.215Z,9.80
2018-12-31T16:46:25.836Z,9.80
2018-12-31T16:48:54.688Z,9.80
2018-12-31T16:51:23.316Z,9.90
2018-12-31T16:53:51.914Z,9.80
2018-12-31T16:56:20.512Z,9.80
2018-12-31T16:58:49.124Z,9.80
2018-12-31T17:01:18.268Z,9.80
2018-12-31T17:03:46.879Z,9.80
2018-12-31T17:06:15.444Z,9.80
2018-12-31T17:08:44.045Z,9.80
2018-12-31T17:11:12.616Z,9.80
2018-12-31T17:13:41.218Z,9.80
2018-12-31T17:16:09.786Z,9.80
2018-12-31T17:18:38.363Z,9.80
2018-12-31T17:21:06.940Z,9.70
2018-12-31T17:23:35.519Z,9.80
2018-12-31T17:26:05.121Z,9.70
2018-12-31T17:28:33.749Z,9.80
2018-12-31T17:31:04.608Z,9.80
2018-12-31T17:33:33.208Z,9.80
2018-12-31T17:36:01.802Z,9.80
2018-12-31T17:38:30.380Z,9.80
2018-12-31T17:40:59.140Z,9.80
2018-12-31T17:43:27.697Z,9.90
2018-12-31T17:45:56.277Z,9.90
2018-12-31T17:48:24.832Z,9.90
2018-12-31T17:50:53.413Z,9.90
2018-12-31T17:53:22.420Z,9.90
2018-12-31T17:55:51.112Z,9.90
2018-12-31T17:58:19.672Z,9.90
2018-12-31T18:00:48.244Z,10.00
2018-12-31T18:03:16.816Z,9.90
2018-12-31T18:05:45.373Z,9.90
2018-12-31T18:08:13.951Z,10.00
2018-12-31T18:10:42.578Z,9.90
2018-12-31T18:13:13.293Z,9.90
2018-12-31T18:15:42.075Z,9.90
2018-12-31T18:18:10.682Z,9.90
2018-12-31T18:20:40.354Z,9.90
2018-12-31T18:23:08.888Z,9.90
2018-12-31T18:25:38.126Z,9.90
2018-12-31T18:28:07.265Z,10.00
2018-12-31T18:30:36.102Z,9.90
2018-12-31T18:33:04.914Z,9.90
2018-12-31T18:35:33.520Z,9.90
2018-12-31T18:38:02.084Z,9.90
2018-12-31T18:40:30.661Z,9.90
2018-12-31T18:42:59.332Z,10.00
2018-12-31T18:45:27.915Z,9.90
2018-12-31T18:47:57.290Z,9.90
2018-12-31T18:50:31.857Z,9.90
2018-12-31T18:53:00.528Z,9.90
2018-12-31T18:55:29.088Z,9.90
2018-12-31T18:57:57.670Z,9.90
2018-12-31T19:00:26.230Z,9.90
2018-12-31T19:02:54.809Z,9.90
2018-12-31T19:05:23.555Z,9.90
2018-12-31T19:07:52.121Z,9.90
2018-12-31T19:10:20.714Z,9.90
2018-12-31T19:12:49.295Z,9.90
2018-12-31T19:15:19.944Z,9.90
2018-12-31T19:17:48.514Z,9.90
2018-12-31T19:20:17.088Z,9.90
2018-12-31T19:22:45.945Z,9.90
2018-12-31T19:25:14.508Z,9.90
2018-12-31T19:27:43.086Z,10.00
2018-12-31T19:30:11.659Z,9.90
2018-12-31T19:32:40.241Z,10.00
2018-12-31T19:35:09.188Z,10.00
2018-12-31T19:37:38.317Z,9.90
2018-12-31T19:40:06.912Z,10.00
2018-12-31T19:42:35.513Z,9.90
2018-12-31T19:45:04.280Z,9.90
2018-12-31T19:47:32.841Z,9.90
2018-12-31T19:50:01.425Z,10.00
2018-12-31T19:52:30.030Z,9.90
2018-12-31T19:54:58.687Z,10.00
2018-12-31T19:57:27.370Z,10.00
2018-12-31T19:59:56.180Z,10.00
2018-12-31T20:02:24.756Z,10.00
2018-12-31T20:04:53.664Z,9.90
2018-12-31T20:07:22.264Z,9.90
2018-12-31T20:09:50.831Z,9.90
2018-12-31T20:12:19.449Z,9.90
2018-12-31T20:14:48.588Z,9.90
2018-12-31T20:17:17.153Z,9.90
2018-12-31T20:19:45.765Z,10.00
2018-12-31T20:22:14.346Z,10.00
2018-12-31T20:24:42.933Z,9.90
2018-12-31T20:27:11.497Z,9.90
2018-12-31T20:29:41.303Z,9.90
2018-12-31T20:32:09.916Z,10.00
2018-12-31T20:34:38.476Z,9.90
2018-12-31T20:37:07.044Z,9.90
2018-12-31T20:39:35.628Z,9.90
2018-12-31T20:42:04.680Z,9.90
2018-12-31T20:44:34.170Z,9.90
2018-12-31T20:47:02.741Z,9.90
2018-12-31T20:49:31.342Z,9.90
2018-12-31T20:51:59.930Z,9.90
2018-12-31T20:54:28.506Z,9.90
2018-12-31T20:56:57.064Z,9.80
2018-12-31T20:59:25.656Z,9.90
2018-12-31T21:01:54.238Z,9.80
2018-12-31T21:04:22.808Z,9.80
2018-12-31T21:06:53.591Z,9.80
2018-12-31T21:09:22.382Z,9.80
2018-12-31T21:11:51.245Z,9.80
2018-12-31T21:14:19.832Z,9.70
2018-12-31T21:16:48.376Z,9.80
2018-12-31T21:19:16.950Z,9.70
2018-12-31T21:21:45.524Z,9.60
2018-12-31T21:24:14.104Z,9.60
2018-12-31T21:26:42.704Z,9.60
2018-12-31T21:29:11.267Z,9.50
2018-12-31T21:31:39.816Z,9.60
2018-12-31T21:34:09.146Z,9.40
2018-12-31T21:36:37.722Z,9.50
2018-12-31T21:39:07.348Z,9.50
2018-12-31T21:41:35.932Z,9.50
2018-12-31T21:44:04.500Z,9.50
2018-12-31T21:46:33.083Z,9.50
2018-12-31T21:49:02.046Z,9.50
2018-12-31T21:51:31.536Z,9.60
2018-12-31T21:54:04.116Z,9.50
2018-12-31T21:56:35.889Z,9.40
2018-12-31T21:59:09.575Z,9.30
2018-12-31T22:01:38.276Z,9.40
2018-12-31T22:04:06.840Z,9.40
2018-12-31T22:06:35.400Z,9.30
2018-12-31T22:09:04.742Z,9.30
2018-12-31T22:11:34.239Z,9.30
2018-12-31T22:14:02.849Z,9.20
2018-12-31T22:16:31.424Z,9.10
2018-12-31T22:19:00.074Z,9.10
2018-12-31T22:21:29.327Z,9.10
2018-12-31T22:23:58.300Z,9.10
2018-12-31T22:26:27.252Z,9.20
2018-12-31T22:28:55.813Z,9.20
2018-12-31T22:31:24.394Z,9.10
2018-12-31T22:33:53.346Z,9.00
2018-12-31T22:36:21.913Z,8.90
2018-12-31T22:38:51.823Z,9.00
2018-12-31T22:41:20.471Z,9.00
2018-12-31T22:43:49.066Z,8.90
2018-12-31T22:46:17.662Z,8.90
2018-12-31T22:48:46.224Z,9.00
2018-12-31T22:51:14.884Z,9.00
2018-12-31T22:53:43.469Z,9.00
2018-12-31T22:56:12.049Z,9.00
2018-12-31T22:58:40.636Z,9.00
2018-12-31T23:01:22.431Z,8.90
2018-12-31T23:03:54.266Z,8.90
2018-12-31T23:06:25.524Z,8.90
2018-12-31T23:08:58.814Z,8.80
2018-12-31T23:11:30.525Z,8.80
2018-12-31T23:13:59.617Z,8.70
2018-12-31T23:16:36.433Z,8.80
2018-12-31T23:19:05.575Z,8.80
2018-12-31T23:21:34.580Z,8.90
2018-12-31T23:24:03.950Z,8.90
2018-12-31T23:26:37.741Z,8.90
2018-12-31T23:29:08.103Z,9.00
2018-12-31T23:31:42.103Z,8.90
2018-12-31T23:34:13.108Z,8.80
2018-12-31T23:36:42.472Z,8.70
2018-12-31T23:39:14.946Z,8.60
2018-12-31T23:41:43.881Z,8.70
2018-12-31T23:44:14.903Z,8.70
2018-12-31T23:46:44.138Z,8.70
2018-12-31T23:49:19.979Z,8.60
2018-12-31T23:51:50.358Z,8.50
2018-12-31T23:54:22.363Z,8.60
2018-12-31T23:56:51.652Z,8.60
2018-12-31T23:59:24.481Z,8.60
